Time;durP1;ratioP1;P1;durP2;ratioP2;P2;SDS_P1;SDS_P2;PMS_P1;PMS_P2;Temp;Humidity;BMP_temperature;BMP_pressure;BME280_temperature;BME280_humidity;BME280_pressure;Samples;Min_cycle;Max_cycle;Signal;HPM_P1;HPM_P2
2022/06/19 00:01:49;;;;;;;;;;;;;;;;;;4900651;29;19985;-87
2022/06/19 00:04:17;;;;;;;;;;;;;;;;;;4938528;28;20345;-88
2022/06/19 00:06:45;;;;;;;;;;;;;;;;;;4900859;29;19930;-87
2022/06/19 00:09:13;;;;;;;;;;;;;;;;;;4906521;28;19934;-88
2022/06/19 00:11:41;;;;;;;;;;;;;;;;;;4907950;29;19923;-87
2022/06/19 00:14:08;;;;;;;;;;;;;;;;;;4909020;29;19926;-88
2022/06/19 00:16:34;;;;;;;;;;;;;;;;;;4902036;29;19935;-87
2022/06/19 00:19:01;;;;;;;;;;;;;;;;;;4905450;28;19974;-87
2022/06/19 00:21:28;;;;;;;;;;;;;;;;;;4907719;29;19937;-87
2022/06/19 00:23:55;;;;;;;;;;;;;;;;;;4902709;28;20097;-87
2022/06/19 00:26:22;;;;;;;;;;;;;;;;;;4907929;29;21977;-87
2022/06/19 00:28:48;;;;;;;;;;;;;;;;;;4905831;28;19927;-88
2022/06/19 00:31:16;;;;;;;;;;;;;;;;;;4907383;29;19938;-88
2022/06/19 00:33:42;;;;;;;;;;;;;;;;;;4932545;28;19935;-88
2022/06/19 00:36:08;;;;;;;;;;;;;;;;;;4906602;29;19938;-87
2022/06/19 00:38:50;;;;;;;;;;;;;;;;;;4938357;28;20035;-88
2022/06/19 00:41:17;;;;;;;;;;;;;;;;;;4921292;28;19933;-87
2022/06/19 00:43:43;;;;;;;;;;;;;;;;;;4929434;28;19922;-87
2022/06/19 00:46:10;;;;;;;;;;;;;;;;;;4909319;28;20436;-87
2022/06/19 00:48:37;;;;;;;;;;;;;;;;;;4913542;28;20747;-87
2022/06/19 00:51:06;;;;;;;;;;;;;;;;;;4906766;28;19927;-87
2022/06/19 00:53:36;;;;;;;;;;;;;;;;;;4933322;28;19930;-88
2022/06/19 00:56:03;;;;;;;;;;;;;;;;;;4918576;28;20644;-87
2022/06/19 00:58:29;;;;;;;;;;;;;;;;;;4915798;28;19930;-88
2022/06/19 01:01:12;;;;;;;;;;;;;;;;;;4933440;28;20417;-87
2022/06/19 01:03:42;;;;;;;;;;;;;;;;;;4918643;28;20597;-87
2022/06/19 01:06:09;;;;;;;;;;;;;;;;;;4919992;28;19930;-87
2022/06/19 01:08:37;;;;;;;;;;;;;;;;;;4917638;28;19945;-87
2022/06/19 01:11:13;;;;;;;;;;;;;;;;;;4895506;29;19931;-87
2022/06/19 01:13:40;;;;;;;;;;;;;;;;;;4906953;29;19963;-88
2022/06/19 01:16:07;;;;;;;;;;;;;;;;;;4921299;28;19975;-88
2022/06/19 01:18:35;;;;;;;;;;;;;;;;;;4911592;28;19927;-87
2022/06/19 01:21:01;;;;;;;;;;;;;;;;;;4887928;29;19922;-87
2022/06/19 01:23:28;;;;;;;;;;;;;;;;;;4888655;29;19923;-87
2022/06/19 01:25:55;;;;;;;;;;;;;;;;;;4916084;28;20706;-87
2022/06/19 01:31:09;;;;;;;;;;;;;;;;;;4917870;28;19985;-87
2022/06/19 01:33:36;;;;;;;;;;;;;;;;;;4898409;28;19927;-87
2022/06/19 01:36:03;;;;;;;;;;;;;;;;;;4902556;29;19931;-87
2022/06/19 01:38:29;;;;;;;;;;;;;;;;;;4919036;28;20366;-87
2022/06/19 01:40:55;;;;;;;;;;;;;;;;;;4907898;29;20370;-87
2022/06/19 01:43:24;;;;;;;;;;;;;;;;;;4916940;29;19930;-87
2022/06/19 01:45:57;;;;;;;;;;;;;;;;;;4906216;29;19930;-87
2022/06/19 01:48:24;;;;;;;;;;;;;;;;;;4906168;29;20109;-87
2022/06/19 01:50:50;;;;;;;;;;;;;;;;;;4900743;29;19931;-87
2022/06/19 01:53:19;;;;;;;;;;;;;;;;;;4929430;28;20025;-88
2022/06/19 01:55:46;;;;;;;;;;;;;;;;;;4885953;29;19927;-87
2022/06/19 01:58:13;;;;;;;;;;;;;;;;;;4917954;28;19930;-88
2022/06/19 02:00:41;;;;;;;;;;;;;;;;;;4881963;29;19927;-87
2022/06/19 02:03:08;;;;;;;;;;;;;;;;;;4930747;28;19982;-88
2022/06/19 02:05:35;;;;;;;;;;;;;;;;;;4882408;29;20030;-88
2022/06/19 02:08:16;;;;;;;;;;;;;;;;;;4887597;29;19930;-87
2022/06/19 02:10:44;;;;;;;;;;;;;;;;;;4862783;29;20401;-87
2022/06/19 02:13:13;;;;;;;;;;;;;;;;;;4874264;29;19938;-87
2022/06/19 02:15:40;;;;;;;;;;;;;;;;;;4853948;29;19935;-88
2022/06/19 02:18:07;;;;;;;;;;;;;;;;;;4895669;29;19987;-87
2022/06/19 02:20:33;;;;;;;;;;;;;;;;;;4863706;29;20005;-88
2022/06/19 02:23:07;;;;;;;;;;;;;;;;;;4868346;29;20129;-87
2022/06/19 02:25:35;;;;;;;;;;;;;;;;;;4862681;29;19934;-87
2022/06/19 02:28:03;;;;;;;;;;;;;;;;;;4865526;29;19927;-87
2022/06/19 02:30:32;;;;;;;;;;;;;;;;;;4881842;29;20026;-87
2022/06/19 02:32:58;;;;;;;;;;;;;;;;;;4883278;29;19931;-87
2022/06/19 02:35:26;;;;;;;;;;;;;;;;;;4899152;29;19970;-87
2022/06/19 02:37:53;;;;;;;;;;;;;;;;;;4864194;29;19931;-87
2022/06/19 02:40:20;;;;;;;;;;;;;;;;;;4886896;29;20275;-88
2022/06/19 02:42:47;;;;;;;;;;;;;;;;;;4907124;28;19927;-87
2022/06/19 02:45:18;;;;;;;;;;;;;;;;;;4916880;29;19931;-87
2022/06/19 02:47:44;;;;;;;;;;;;;;;;;;4905908;28;19976;-87
2022/06/19 02:50:10;;;;;;;;;;;;;;;;;;4907471;29;20064;-87
2022/06/19 02:52:36;;;;;;;;;;;;;;;;;;4891199;28;19958;-87
2022/06/19 02:55:02;;;;;;;;;;;;;;;;;;4906607;29;19923;-88
2022/06/19 02:57:35;;;;;;;;;;;;;;;;;;4901383;29;19946;-87
2022/06/19 03:00:01;;;;;;;;;;;;;;;;;;4906083;29;19934;-88
2022/06/19 03:02:28;;;;;;;;;;;;;;;;;;4906429;29;19985;-87
2022/06/19 03:04:56;;;;;;;;;;;;;;;;;;4932720;28;19970;-87
2022/06/19 03:07:23;;;;;;;;;;;;;;;;;;4908298;29;19930;-87
2022/06/19 03:09:50;;;;;;;;;;;;;;;;;;4903525;28;19931;-87
2022/06/19 03:12:17;;;;;;;;;;;;;;;;;;4911339;29;19926;-87
2022/06/19 03:14:44;;;;;;;;;;;;;;;;;;4935709;28;19922;-87
2022/06/19 03:17:25;;;;;;;;;;;;;;;;;;4886774;29;19964;-87
2022/06/19 03:19:52;;;;;;;;;;;;;;;;;;4880007;29;19959;-87
2022/06/19 03:22:33;;;;;;;;;;;;;;;;;;4855883;29;22478;-86
2022/06/19 03:25:01;;;;;;;;;;;;;;;;;;4871911;29;19943;-87
2022/06/19 03:27:28;;;;;;;;;;;;;;;;;;4870590;29;19966;-87
2022/06/19 03:29:55;;;;;;;;;;;;;;;;;;4884447;28;19928;-87
2022/06/19 03:32:21;;;;;;;;;;;;;;;;;;4869167;29;19931;-87
2022/06/19 03:34:48;;;;;;;;;;;;;;;;;;4867665;29;19931;-87
2022/06/19 03:37:14;;;;;;;;;;;;;;;;;;4883960;29;19928;-87
2022/06/19 03:39:41;;;;;;;;;;;;;;;;;;4865120;29;19938;-87
2022/06/19 03:42:09;;;;;;;;;;;;;;;;;;4890600;29;19923;-88
2022/06/19 03:44:35;;;;;;;;;;;;;;;;;;4897427;29;19923;-87
2022/06/19 03:47:02;;;;;;;;;;;;;;;;;;4872953;29;19930;-88
2022/06/19 03:49:29;;;;;;;;;;;;;;;;;;4888074;29;19981;-88
2022/06/19 03:51:58;;;;;;;;;;;;;;;;;;4855373;29;19931;-88
2022/06/19 03:54:26;;;;;;;;;;;;;;;;;;4891301;29;19931;-87
2022/06/19 03:56:55;;;;;;;;;;;;;;;;;;4919259;28;19973;-87
2022/06/19 03:59:21;;;;;;;;;;;;;;;;;;4918866;28;20033;-87
2022/06/19 04:01:48;;;;;;;;;;;;;;;;;;4898566;28;20257;-87
2022/06/19 04:04:15;;;;;;;;;;;;;;;;;;4924216;28;20072;-87
2022/06/19 04:06:42;;;;;;;;;;;;;;;;;;4920095;28;19924;-87
2022/06/19 04:09:09;;;;;;;;;;;;;;;;;;4904239;28;19990;-87
2022/06/19 04:11:46;;;;;;;;;;;;;;;;;;4922030;28;19942;-86
2022/06/19 04:14:13;;;;;;;;;;;;;;;;;;4894478;28;19933;-87
2022/06/19 04:16:40;;;;;;;;;;;;;;;;;;4895828;28;19938;-87
2022/06/19 04:19:07;;;;;;;;;;;;;;;;;;4907908;28;19929;-87
2022/06/19 04:21:38;;;;;;;;;;;;;;;;;;4930815;28;20041;-87
2022/06/19 04:24:05;;;;;;;;;;;;;;;;;;4922011;28;19986;-87
2022/06/19 04:26:31;;;;;;;;;;;;;;;;;;4929246;28;19985;-87
2022/06/19 04:28:58;;;;;;;;;;;;;;;;;;4907351;28;19927;-87
2022/06/19 04:31:24;;;;;;;;;;;;;;;;;;4905279;29;20429;-86
2022/06/19 04:33:50;;;;;;;;;;;;;;;;;;4928484;28;19931;-86
2022/06/19 04:36:16;;;;;;;;;;;;;;;;;;4908826;29;20029;-86
2022/06/19 04:38:45;;;;;;;;;;;;;;;;;;4897494;28;20354;-86
2022/06/19 04:41:12;;;;;;;;;;;;;;;;;;4903868;29;19929;-86
2022/06/19 04:43:38;;;;;;;;;;;;;;;;;;4903222;28;20323;-86
2022/06/19 04:46:05;;;;;;;;;;;;;;;;;;4921160;28;19934;-86
2022/06/19 04:48:42;;;;;;;;;;;;;;;;;;4905387;28;19922;-86
2022/06/19 04:51:08;;;;;;;;;;;;;;;;;;4909959;29;19930;-86
2022/06/19 04:53:38;;;;;;;;;;;;;;;;;;4889128;28;19926;-86
2022/06/19 04:56:06;;;;;;;;;;;;;;;;;;4903941;29;20887;-86
2022/06/19 04:58:32;;;;;;;;;;;;;;;;;;4899448;28;19931;-86
2022/06/19 05:01:01;;;;;;;;;;;;;;;;;;4886659;29;19934;-86
2022/06/19 05:03:27;;;;;;;;;;;;;;;;;;4904692;29;20033;-86
2022/06/19 05:05:55;;;;;;;;;;;;;;;;;;4904436;29;19978;-86
2022/06/19 05:08:21;;;;;;;;;;;;;;;;;;4904628;29;19931;-87
2022/06/19 05:10:54;;;;;;;;;;;;;;;;;;4903977;28;19967;-86
2022/06/19 05:13:21;;;;;;;;;;;;;;;;;;4891361;29;19931;-86
2022/06/19 05:15:48;;;;;;;;;;;;;;;;;;4900141;28;20037;-87
2022/06/19 05:18:34;;;;;;;;;;;;;;;;;;4854260;29;20526;-87
2022/06/19 05:21:06;;;;;;;;;;;;;;;;;;4850613;29;19938;-86
2022/06/19 05:23:33;;;;;;;;;;;;;;;;;;4842449;29;19931;-86
2022/06/19 05:25:59;;;;;;;;;;;;;;;;;;4833037;29;20844;-86
2022/06/19 05:28:26;;;;;;;;;;;;;;;;;;4848833;29;19931;-86
2022/06/19 05:30:59;;;;;;;;;;;;;;;;;;4830493;29;19936;-86
2022/06/19 05:33:27;;;;;;;;;;;;;;;;;;4848630;29;19955;-86
2022/06/19 05:35:53;;;;;;;;;;;;;;;;;;4848013;29;19927;-86
2022/06/19 05:38:28;;;;;;;;;;;;;;;;;;4866508;29;19996;-86
2022/06/19 05:40:55;;;;;;;;;;;;;;;;;;4845931;29;19966;-86
2022/06/19 05:43:22;;;;;;;;;;;;;;;;;;4848101;29;19938;-86
2022/06/19 05:45:50;;;;;;;;;;;;;;;;;;4833504;29;19972;-86
2022/06/19 05:48:17;;;;;;;;;;;;;;;;;;4860022;29;19973;-85
2022/06/19 05:50:44;;;;;;;;;;;;;;;;;;4853517;29;19931;-85
2022/06/19 05:53:36;;;;;;;;;;;;;;;;;;4861176;29;19979;-85
2022/06/19 05:56:03;;;;;;;;;;;;;;;;;;4869305;29;19932;-86
2022/06/19 05:58:29;;;;;;;;;;;;;;;;;;4852507;29;20408;-85
2022/06/19 06:01:00;;;;;;;;;;;;;;;;;;4864197;29;19927;-85
2022/06/19 06:03:27;;;;;;;;;;;;;;;;;;4892524;29;19926;-85
2022/06/19 06:05:53;;;;;;;;;;;;;;;;;;4898841;28;19923;-85
2022/06/19 06:08:19;;;;;;;;;;;;;;;;;;4906332;29;22141;-85
2022/06/19 06:10:45;;;;;;;;;;;;;;;;;;4902854;29;20280;-85
2022/06/19 06:13:13;;;;;;;;;;;;;;;;;;4912648;29;19969;-85
2022/06/19 06:15:39;;;;;;;;;;;;;;;;;;4911540;28;20395;-86
2022/06/19 06:18:07;;;;;;;;;;;;;;;;;;4916006;29;19923;-86
2022/06/19 06:20:34;;;;;;;;;;;;;;;;;;4907834;28;20686;-85
2022/06/19 06:23:10;;;;;;;;;;;;;;;;;;4915381;28;19997;-86
2022/06/19 06:25:40;;;;;;;;;;;;;;;;;;4935609;28;19978;-85
2022/06/19 06:28:07;;;;;;;;;;;;;;;;;;4909223;29;19930;-85
2022/06/19 06:30:33;;;;;;;;;;;;;;;;;;4901514;28;19942;-85
2022/06/19 06:32:59;;;;;;;;;;;;;;;;;;4908415;29;20294;-85
2022/06/19 06:35:27;;;;;;;;;;;;;;;;;;4904094;28;19931;-85
2022/06/19 06:37:59;;;;;;;;;;;;;;;;;;4908083;29;20215;-85
2022/06/19 06:40:25;;;;;;;;;;;;;;;;;;4909159;28;19927;-85
2022/06/19 06:42:52;;;;;;;;;;;;;;;;;;4902593;29;19938;-85
2022/06/19 06:45:29;;;;;;;;;;;;;;;;;;4909025;28;20370;-85
2022/06/19 06:47:56;;;;;;;;;;;;;;;;;;4911233;29;20435;-85
2022/06/19 06:50:23;;;;;;;;;;;;;;;;;;4912110;28;19938;-85
2022/06/19 06:52:56;;;;;;;;;;;;;;;;;;4907640;29;19937;-85
2022/06/19 06:55:24;;;;;;;;;;;;;;;;;;4895890;29;19927;-85
2022/06/19 06:57:52;;;;;;;;;;;;;;;;;;4936399;28;19941;-85
2022/06/19 07:00:21;;;;;;;;;;;;;;;;;;4910644;28;19927;-85
2022/06/19 07:02:48;;;;;;;;;;;;;;;;;;4892555;29;19927;-85
2022/06/19 07:05:16;;;;;;;;;;;;;;;;;;4906733;28;20065;-85
2022/06/19 07:07:42;;;;;;;;;;;;;;;;;;4903500;29;19938;-85
2022/06/19 07:10:09;;;;;;;;;;;;;;;;;;4905040;28;19930;-85
2022/06/19 07:12:36;;;;;;;;;;;;;;;;;;4907741;29;19930;-86
2022/06/19 07:15:04;;;;;;;;;;;;;;;;;;4904451;28;20010;-85
2022/06/19 07:17:30;;;;;;;;;;;;;;;;;;4910898;28;19942;-85
2022/06/19 07:20:15;;;;;;;;;;;;;;;;;;4911150;28;19974;-85
2022/06/19 07:22:42;;;;;;;;;;;;;;;;;;4886231;29;23216;-85
2022/06/19 07:25:09;;;;;;;;;;;;;;;;;;4888343;29;20078;-85
2022/06/19 07:27:36;;;;;;;;;;;;;;;;;;4904749;29;19934;-85
2022/06/19 07:30:02;;;;;;;;;;;;;;;;;;4908504;28;19926;-85
2022/06/19 07:32:31;;;;;;;;;;;;;;;;;;4917667;29;19973;-85
2022/06/19 07:34:58;;;;;;;;;;;;;;;;;;4916616;29;21190;-85
2022/06/19 07:37:24;;;;;;;;;;;;;;;;;;4918225;28;20557;-85
2022/06/19 07:39:51;;;;;;;;;;;;;;;;;;4912401;28;22311;-85
2022/06/19 07:42:17;;;;;;;;;;;;;;;;;;4918035;29;19931;-85
2022/06/19 07:44:53;;;;;;;;;;;;;;;;;;4915600;28;19930;-85
2022/06/19 07:50:15;;;;;;;;;;;;;;;;;;4913858;28;19977;-84
2022/06/19 07:52:42;;;;;;;;;;;;;;;;;;4901099;29;19927;-84
2022/06/19 07:55:09;;;;;;;;;;;;;;;;;;4923682;28;19989;-84
2022/06/19 07:57:51;;;;;;;;;;;;;;;;;;4899144;29;20822;-85
2022/06/19 08:00:17;;;;;;;;;;;;;;;;;;4892981;29;19927;-85
2022/06/19 08:02:46;;;;;;;;;;;;;;;;;;4908427;29;19946;-85
2022/06/19 08:05:26;;;;;;;;;;;;;;;;;;4909472;29;19926;-85
2022/06/19 08:07:53;;;;;;;;;;;;;;;;;;4934782;28;19938;-85
2022/06/19 08:10:21;;;;;;;;;;;;;;;;;;4910745;28;19935;-85
2022/06/19 08:12:48;;;;;;;;;;;;;;;;;;4914382;29;19923;-85
2022/06/19 08:15:15;;;;;;;;;;;;;;;;;;4899265;28;19923;-85
2022/06/19 08:17:41;;;;;;;;;;;;;;;;;;4892670;29;19931;-85
2022/06/19 08:20:16;;;;;;;;;;;;;;;;;;4902351;29;20318;-86
2022/06/19 08:22:42;;;;;;;;;;;;;;;;;;4939969;28;19997;-86
2022/06/19 08:25:08;;;;;;;;;;;;;;;;;;4906828;28;20748;-86
2022/06/19 08:27:35;;;;;;;;;;;;;;;;;;4893066;29;20406;-85
2022/06/19 08:30:02;;;;;;;;;;;;;;;;;;4902515;28;20165;-86
2022/06/19 08:32:28;;;;;;;;;;;;;;;;;;4904420;29;19930;-85
2022/06/19 08:34:54;;;;;;;;;;;;;;;;;;4899457;29;19971;-86
2022/06/19 08:37:23;;;;;;;;;;;;;;;;;;4909373;29;19935;-86
2022/06/19 08:39:49;;;;;;;;;;;;;;;;;;4892202;29;19923;-86
2022/06/19 08:42:16;;;;;;;;;;;;;;;;;;4909137;29;19934;-86
2022/06/19 08:44:42;;;;;;;;;;;;;;;;;;4914125;28;19922;-86
2022/06/19 08:47:09;;;;;;;;;;;;;;;;;;4919390;29;19974;-85
2022/06/19 08:49:36;;;;;;;;;;;;;;;;;;4891830;29;19997;-86
2022/06/19 08:52:04;;;;;;;;;;;;;;;;;;4911410;29;19931;-86
2022/06/19 08:54:30;;;;;;;;;;;;;;;;;;4911334;28;19923;-86
2022/06/19 08:56:57;;;;;;;;;;;;;;;;;;4914050;29;19930;-85
2022/06/19 08:59:24;;;;;;;;;;;;;;;;;;4910091;29;20357;-85
2022/06/19 09:01:52;;;;;;;;;;;;;;;;;;4891668;29;20528;-86
2022/06/19 09:07:03;;;;;;;;;;;;;;;;;;4911888;29;19938;-87
2022/06/19 09:09:29;;;;;;;;;;;;;;;;;;4908758;29;19931;-86
2022/06/19 09:11:55;;;;;;;;;;;;;;;;;;4937078;28;19977;-84
2022/06/19 09:14:22;;;;;;;;;;;;;;;;;;4912691;29;19927;-84
2022/06/19 09:16:48;;;;;;;;;;;;;;;;;;4909967;28;19931;-84
2022/06/19 09:19:20;;;;;;;;;;;;;;;;;;4913787;29;19933;-84
2022/06/19 09:21:47;;;;;;;;;;;;;;;;;;4892878;29;19931;-84
2022/06/19 09:24:13;;;;;;;;;;;;;;;;;;4907614;29;20453;-85
2022/06/19 09:26:39;;;;;;;;;;;;;;;;;;4893179;29;19929;-86
2022/06/19 09:29:09;;;;;;;;;;;;;;;;;;4913101;29;19922;-86
2022/06/19 09:31:37;;;;;;;;;;;;;;;;;;4901457;28;19938;-85
2022/06/19 09:34:03;;;;;;;;;;;;;;;;;;4909091;29;19937;-85
2022/06/19 09:36:32;;;;;;;;;;;;;;;;;;4919365;28;20341;-82
2022/06/19 09:38:58;;;;;;;;;;;;;;;;;;4907297;29;19934;-82
2022/06/19 09:41:25;;;;;;;;;;;;;;;;;;4913302;28;20267;-83
2022/06/19 09:43:52;;;;;;;;;;;;;;;;;;4908561;29;19934;-82
2022/06/19 09:46:19;;;;;;;;;;;;;;;;;;4916734;28;20832;-83
2022/06/19 09:48:47;;;;;;;;;;;;;;;;;;4911210;29;19923;-83
2022/06/19 09:51:14;;;;;;;;;;;;;;;;;;4922499;28;19934;-83
2022/06/19 09:53:40;;;;;;;;;;;;;;;;;;4908931;29;19926;-83
2022/06/19 09:56:12;;;;;;;;;;;;;;;;;;4940200;28;19937;-83
2022/06/19 09:58:53;;;;;;;;;;;;;;;;;;4895733;29;21221;-83
2022/06/19 10:01:20;;;;;;;;;;;;;;;;;;4902925;29;20392;-83
2022/06/19 10:03:47;;;;;;;;;;;;;;;;;;4901302;29;20925;-83
2022/06/19 10:06:17;;;;;;;;;;;;;;;;;;4907692;29;19934;-83
2022/06/19 10:08:44;;;;;;;;;;;;;;;;;;4889335;29;19930;-83
2022/06/19 10:11:12;;;;;;;;;;;;;;;;;;4911893;29;19930;-82
2022/06/19 10:13:39;;;;;;;;;;;;;;;;;;4902870;29;19951;-82
2022/06/19 10:16:06;;;;;;;;;;;;;;;;;;4911473;29;20406;-82
2022/06/19 10:18:33;;;;;;;;;;;;;;;;;;4893071;29;19933;-81
2022/06/19 10:22:13;;;;;;;;;;;;;;;;;;4864830;29;19953;-82
2022/06/19 10:24:21;;;;;;;;;;;;;;;;;;4874114;29;19926;-82
2022/06/19 10:26:47;;;;;;;;;;;;;;;;;;4842117;29;19994;-82
2022/06/19 10:29:14;;;;;;;;;;;;;;;;;;4861198;29;19938;-82
2022/06/19 10:31:45;;;;;;;;;;;;;;;;;;4867286;29;19931;-82
2022/06/19 10:34:15;;;;;;;;;;;;;;;;;;4889859;29;19931;-82
2022/06/19 10:36:48;;;;;;;;;;;;;;;;;;4885333;29;19994;-82
2022/06/19 10:39:16;;;;;;;;;;;;;;;;;;4873907;29;19934;-82
2022/06/19 10:44:26;;;;;;;;;;;;;;;;;;4875923;29;20010;-82
2022/06/19 10:46:53;;;;;;;;;;;;;;;;;;4870943;29;19931;-82
2022/06/19 10:49:20;;;;;;;;;;;;;;;;;;4878629;29;20365;-82
2022/06/19 10:51:47;;;;;;;;;;;;;;;;;;4895712;28;19931;-83
2022/06/19 10:54:13;;;;;;;;;;;;;;;;;;4894686;29;19933;-83
2022/06/19 10:56:43;;;;;;;;;;;;;;;;;;4908329;28;19930;-85
2022/06/19 10:59:09;;;;;;;;;;;;;;;;;;4912775;29;19931;-83
2022/06/19 11:04:22;;;;;;;;;;;;;;;;;;4911789;29;19931;-83
2022/06/19 11:06:49;;;;;;;;;;;;;;;;;;4916456;28;19938;-83
2022/06/19 11:09:16;;;;;;;;;;;;;;;;;;4918585;29;19972;-82
2022/06/19 11:11:46;;;;;;;;;;;;;;;;;;4914302;28;20315;-82
2022/06/19 11:14:13;;;;;;;;;;;;;;;;;;4917756;29;19991;-83
2022/06/19 11:16:41;;;;;;;;;;;;;;;;;;4912390;28;19934;-84
2022/06/19 11:19:08;;;;;;;;;;;;;;;;;;4915657;29;19953;-84
2022/06/19 11:21:35;;;;;;;;;;;;;;;;;;4908769;29;20012;-83
2022/06/19 11:24:01;;;;;;;;;;;;;;;;;;4908440;29;19961;-83
2022/06/19 11:26:29;;;;;;;;;;;;;;;;;;4889312;29;20005;-83
2022/06/19 11:28:56;;;;;;;;;;;;;;;;;;4903938;29;19931;-83
2022/06/19 11:31:22;;;;;;;;;;;;;;;;;;4904888;29;20021;-83
2022/06/19 11:34:43;;;;;;;;;;;;;;;;;;4918477;29;19930;-83
2022/06/19 11:37:08;;;;;;;;;;;;;;;;;;4924075;29;19937;-82
2022/06/19 11:39:55;;;;;;;;;;;;;;;;;;4899514;28;19923;-82
2022/06/19 11:42:22;;;;;;;;;;;;;;;;;;4900680;29;20005;-83
2022/06/19 11:44:57;;;;;;;;;;;;;;;;;;4903737;29;20014;-82
2022/06/19 11:47:24;;;;;;;;;;;;;;;;;;4904397;29;20018;-83
2022/06/19 11:49:50;;;;;;;;;;;;;;;;;;4900647;29;19999;-83
2022/06/19 11:52:19;;;;;;;;;;;;;;;;;;4901608;29;19938;-83
2022/06/19 11:54:47;;;;;;;;;;;;;;;;;;4888981;29;19931;-83
2022/06/19 11:57:14;;;;;;;;;;;;;;;;;;4892406;29;19934;-83
2022/06/19 11:59:44;;;;;;;;;;;;;;;;;;4891430;29;19927;-82
2022/06/19 12:02:12;;;;;;;;;;;;;;;;;;4876267;29;19938;-83
2022/06/19 12:04:40;;;;;;;;;;;;;;;;;;4877415;29;19942;-83
2022/06/19 12:07:08;;;;;;;;;;;;;;;;;;4883073;29;19992;-83
2022/06/19 12:09:34;;;;;;;;;;;;;;;;;;4884953;29;20006;-83
2022/06/19 12:12:07;;;;;;;;;;;;;;;;;;4881249;29;19990;-82
2022/06/19 12:14:34;;;;;;;;;;;;;;;;;;4866273;29;19931;-82
2022/06/19 12:17:01;;;;;;;;;;;;;;;;;;4889227;29;19958;-84
2022/06/19 12:19:28;;;;;;;;;;;;;;;;;;4867611;29;19990;-84
2022/06/19 12:21:54;;;;;;;;;;;;;;;;;;4878191;29;19993;-84
2022/06/19 12:24:20;;;;;;;;;;;;;;;;;;4883883;29;19958;-84
2022/06/19 12:26:48;;;;;;;;;;;;;;;;;;4891065;29;20005;-84
2022/06/19 12:29:14;;;;;;;;;;;;;;;;;;4896776;29;20374;-84
2022/06/19 12:31:42;;;;;;;;;;;;;;;;;;4906829;29;20385;-84
2022/06/19 12:34:09;;;;;;;;;;;;;;;;;;4913572;29;19931;-84
2022/06/19 12:36:36;;;;;;;;;;;;;;;;;;4907200;29;19957;-84
2022/06/19 12:39:03;;;;;;;;;;;;;;;;;;4915913;29;20374;-84
2022/06/19 12:41:29;;;;;;;;;;;;;;;;;;4928031;28;19935;-84
2022/06/19 12:43:59;;;;;;;;;;;;;;;;;;4916423;29;19931;-84
2022/06/19 12:46:26;;;;;;;;;;;;;;;;;;4940903;28;19974;-84
2022/06/19 12:48:54;;;;;;;;;;;;;;;;;;4906413;29;19970;-85
2022/06/19 12:51:20;;;;;;;;;;;;;;;;;;4894353;29;20282;-84
2022/06/19 12:53:46;;;;;;;;;;;;;;;;;;4907622;29;19931;-84
2022/06/19 12:56:13;;;;;;;;;;;;;;;;;;4936523;28;20390;-84
2022/06/19 12:58:41;;;;;;;;;;;;;;;;;;4908918;29;19926;-84
2022/06/19 13:01:08;;;;;;;;;;;;;;;;;;4912554;29;19950;-85
2022/06/19 13:03:36;;;;;;;;;;;;;;;;;;4902913;28;19926;-82
2022/06/19 13:06:04;;;;;;;;;;;;;;;;;;4911716;29;19927;-85
2022/06/19 13:08:36;;;;;;;;;;;;;;;;;;4911327;29;19969;-86
2022/06/19 13:11:03;;;;;;;;;;;;;;;;;;4939769;28;19923;-86
2022/06/19 13:13:29;;;;;;;;;;;;;;;;;;4895487;29;19962;-86
2022/06/19 13:15:56;;;;;;;;;;;;;;;;;;4913889;29;19942;-86
2022/06/19 13:18:24;;;;;;;;;;;;;;;;;;4895147;29;19933;-85
2022/06/19 13:20:54;;;;;;;;;;;;;;;;;;4905615;28;19935;-86
2022/06/19 13:23:20;;;;;;;;;;;;;;;;;;4895946;29;19934;-86
2022/06/19 13:25:47;;;;;;;;;;;;;;;;;;4906680;28;22935;-85
2022/06/19 13:28:17;;;;;;;;;;;;;;;;;;4908043;29;19930;-85
2022/06/19 13:30:43;;;;;;;;;;;;;;;;;;4905775;29;19931;-85
2022/06/19 13:33:32;;;;;;;;;;;;;;;;;;4909781;29;20010;-85
2022/06/19 13:35:58;;;;;;;;;;;;;;;;;;4897814;29;19946;-86
2022/06/19 13:38:25;;;;;;;;;;;;;;;;;;4907670;29;20022;-85
2022/06/19 13:41:06;;;;;;;;;;;;;;;;;;4889408;29;19931;-85
2022/06/19 13:43:34;;;;;;;;;;;;;;;;;;4886856;29;20070;-85
2022/06/19 13:46:02;;;;;;;;;;;;;;;;;;4888728;29;20338;-86
2022/06/19 13:48:48;;;;;;;;;;;;;;;;;;4865632;29;19931;-86
2022/06/19 13:51:16;;;;;;;;;;;;;;;;;;4873029;29;20326;-85
2022/06/19 13:53:41;;;;;;;;;;;;;;;;;;4856048;29;20670;-85
2022/06/19 13:56:09;;;;;;;;;;;;;;;;;;4860481;29;19931;-85
2022/06/19 13:58:35;;;;;;;;;;;;;;;;;;4853595;29;19932;-85
2022/06/19 14:01:03;;;;;;;;;;;;;;;;;;4872266;29;19991;-86
2022/06/19 14:06:16;;;;;;;;;;;;;;;;;;4887435;29;19943;-85
2022/06/19 14:08:43;;;;;;;;;;;;;;;;;;4875245;29;20355;-85
2022/06/19 14:11:10;;;;;;;;;;;;;;;;;;4885793;29;19986;-85
2022/06/19 14:13:36;;;;;;;;;;;;;;;;;;4872200;28;19938;-86
2022/06/19 14:16:05;;;;;;;;;;;;;;;;;;4921506;28;19931;-86
2022/06/19 14:18:48;;;;;;;;;;;;;;;;;;4902411;28;19934;-86
2022/06/19 14:21:15;;;;;;;;;;;;;;;;;;4897702;29;19923;-86
2022/06/19 14:23:42;;;;;;;;;;;;;;;;;;4892913;28;20390;-86
2022/06/19 14:26:09;;;;;;;;;;;;;;;;;;4893488;29;19942;-87
2022/06/19 14:28:35;;;;;;;;;;;;;;;;;;4890877;28;19934;-86
2022/06/19 14:31:03;;;;;;;;;;;;;;;;;;4900842;29;20306;-86
2022/06/19 14:33:45;;;;;;;;;;;;;;;;;;4911089;28;20199;-86
2022/06/19 14:36:13;;;;;;;;;;;;;;;;;;4895005;29;19927;-87
2022/06/19 14:38:46;;;;;;;;;;;;;;;;;;4883462;29;19974;-87
2022/06/19 14:41:15;;;;;;;;;;;;;;;;;;4917424;28;19926;-86
2022/06/19 14:43:42;;;;;;;;;;;;;;;;;;4907396;28;19926;-86
2022/06/19 14:46:08;;;;;;;;;;;;;;;;;;4913705;29;19927;-88
2022/06/19 14:48:38;;;;;;;;;;;;;;;;;;4910404;28;19982;-86
2022/06/19 14:51:05;;;;;;;;;;;;;;;;;;4909781;29;19933;-86
2022/06/19 14:53:31;;;;;;;;;;;;;;;;;;4934369;28;19927;-86
2022/06/19 14:56:00;;;;;;;;;;;;;;;;;;4912219;29;19954;-86
2022/06/19 14:58:27;;;;;;;;;;;;;;;;;;4940781;28;19931;-86
2022/06/19 15:00:54;;;;;;;;;;;;;;;;;;4910234;29;19938;-86
2022/06/19 15:03:22;;;;;;;;;;;;;;;;;;4912841;29;20377;-85
2022/06/19 15:05:49;;;;;;;;;;;;;;;;;;4907144;28;20013;-85
2022/06/19 15:08:15;;;;;;;;;;;;;;;;;;4924687;28;21996;-82
2022/06/19 15:10:43;;;;;;;;;;;;;;;;;;4915606;29;19929;-82
2022/06/19 15:13:09;;;;;;;;;;;;;;;;;;4912817;29;19955;-82
2022/06/19 15:15:36;;;;;;;;;;;;;;;;;;4914683;29;20362;-83
2022/06/19 15:18:02;;;;;;;;;;;;;;;;;;4915354;29;19935;-82
2022/06/19 15:20:30;;;;;;;;;;;;;;;;;;4914616;28;19942;-83
2022/06/19 15:22:59;;;;;;;;;;;;;;;;;;4914542;28;19927;-82
2022/06/19 15:25:29;;;;;;;;;;;;;;;;;;4918958;28;19927;-84
2022/06/19 15:27:56;;;;;;;;;;;;;;;;;;4909059;29;19926;-83
2022/06/19 15:30:22;;;;;;;;;;;;;;;;;;4914214;28;19958;-84
2022/06/19 15:32:49;;;;;;;;;;;;;;;;;;4915038;29;19969;-87
2022/06/19 15:35:17;;;;;;;;;;;;;;;;;;4913745;28;19927;-87
2022/06/19 15:37:44;;;;;;;;;;;;;;;;;;4924784;28;19935;-87
2022/06/19 15:40:11;;;;;;;;;;;;;;;;;;4912707;29;19931;-86
2022/06/19 15:42:39;;;;;;;;;;;;;;;;;;4930432;28;19926;-86
2022/06/19 15:45:06;;;;;;;;;;;;;;;;;;4913966;28;20297;-86
2022/06/19 15:47:33;;;;;;;;;;;;;;;;;;4911118;29;19923;-86
2022/06/19 15:50:02;;;;;;;;;;;;;;;;;;4898110;29;19931;-87
2022/06/19 15:52:29;;;;;;;;;;;;;;;;;;4913492;29;20176;-86
2022/06/19 15:54:59;;;;;;;;;;;;;;;;;;4898740;29;20014;-86
2022/06/19 15:57:26;;;;;;;;;;;;;;;;;;4919124;29;19931;-86
2022/06/19 16:00:12;;;;;;;;;;;;;;;;;;4913419;28;19934;-86
2022/06/19 16:02:47;;;;;;;;;;;;;;;;;;4908769;29;19923;-86
2022/06/19 16:05:14;;;;;;;;;;;;;;;;;;4945712;28;20235;-86
2022/06/19 16:07:42;;;;;;;;;;;;;;;;;;4898690;29;19927;-86
2022/06/19 16:10:09;;;;;;;;;;;;;;;;;;4899233;29;19922;-87
2022/06/19 16:12:35;;;;;;;;;;;;;;;;;;4912507;29;20109;-87
2022/06/19 16:15:02;;;;;;;;;;;;;;;;;;4917174;29;19930;-87
2022/06/19 16:17:35;;;;;;;;;;;;;;;;;;4906933;29;19931;-86
2022/06/19 16:20:12;;;;;;;;;;;;;;;;;;4911663;28;19962;-87
2022/06/19 16:22:39;;;;;;;;;;;;;;;;;;4920321;28;20255;-87
2022/06/19 16:25:06;;;;;;;;;;;;;;;;;;4908371;29;20336;-87
2022/06/19 16:27:33;;;;;;;;;;;;;;;;;;4934780;28;19954;-87
2022/06/19 16:30:01;;;;;;;;;;;;;;;;;;4910727;28;19931;-87
2022/06/19 16:32:27;;;;;;;;;;;;;;;;;;4897738;29;19926;-87
2022/06/19 16:46:00;;;;;;;;;;;;;;;;;;4896941;29;19931;-87
2022/06/19 16:48:26;;;;;;;;;;;;;;;;;;4905477;29;19954;-87
2022/06/19 16:50:54;;;;;;;;;;;;;;;;;;4904280;28;19931;-87
2022/06/19 16:53:21;;;;;;;;;;;;;;;;;;4908115;29;19930;-87
2022/06/19 16:55:48;;;;;;;;;;;;;;;;;;4902462;28;20017;-87
2022/06/19 16:58:14;;;;;;;;;;;;;;;;;;4902498;29;20830;-87
2022/06/19 17:00:56;;;;;;;;;;;;;;;;;;4866928;29;20003;-87
2022/06/19 17:03:25;;;;;;;;;;;;;;;;;;4886785;29;19923;-87
2022/06/19 17:05:53;;;;;;;;;;;;;;;;;;4868873;29;19938;-87
2022/06/19 17:11:05;;;;;;;;;;;;;;;;;;4886994;29;19989;-87
2022/06/19 17:13:33;;;;;;;;;;;;;;;;;;4868949;29;19967;-86
2022/06/19 17:15:59;;;;;;;;;;;;;;;;;;4872140;29;19938;-87
2022/06/19 17:18:41;;;;;;;;;;;;;;;;;;4864790;29;19931;-87
2022/06/19 17:21:07;;;;;;;;;;;;;;;;;;4873411;29;21558;-87
2022/06/19 17:23:35;;;;;;;;;;;;;;;;;;4870685;29;20010;-87
2022/06/19 17:26:05;;;;;;;;;;;;;;;;;;4865545;29;20013;-87